Time;durP1;ratioP1;P1;durP2;ratioP2;P2;SDS_P1;SDS_P2;PMS_P1;PMS_P2;Temp;Humidity;BMP_temperature;BMP_pressure;BME280_temperature;BME280_humidity;BME280_pressure;Samples;Min_cycle;Max_cycle;Signal;HPM_P1;HPM_P2
2022/09/28 00:01:51;;;;;;;7.55;3.63;;;;;;;;;;6288489;22;20022;-85
2022/09/28 00:04:19;;;;;;;4.38;3.30;;;;;;;;;;6281713;22;20077;-85
2022/09/28 00:06:56;;;;;;;4.57;3.42;;;;;;;;;;6308023;22;20101;-86
2022/09/28 00:09:22;;;;;;;5.85;3.45;;;;;;;;;;6329981;22;20015;-85
2022/09/28 00:11:48;;;;;;;6.70;3.88;;;;;;;;;;6329814;22;20018;-84
2022/09/28 00:14:14;;;;;;;7.85;3.90;;;;;;;;;;6300648;22;20463;-86
2022/09/28 00:19:35;;;;;;;6.82;4.40;;;;;;;;;;6331782;22;20015;-84
2022/09/28 00:22:01;;;;;;;6.85;4.43;;;;;;;;;;6304551;22;20037;-85
2022/09/28 00:24:29;;;;;;;8.95;4.30;;;;;;;;;;6311445;22;20038;-84
2022/09/28 00:27:00;;;;;;;7.72;4.80;;;;;;;;;;6320689;22;20019;-84
2022/09/28 00:29:28;;;;;;;6.30;5.07;;;;;;;;;;6322427;22;20026;-86
2022/09/28 00:32:05;;;;;;;8.60;5.72;;;;;;;;;;6289597;22;20015;-85
2022/09/28 00:34:35;;;;;;;8.50;5.35;;;;;;;;;;6336036;22;20091;-84
2022/09/28 00:37:01;;;;;;;8.02;5.53;;;;;;;;;;6334305;22;20018;-86
2022/09/28 00:41:59;;;;;;;8.05;5.57;;;;;;;;;;6334039;22;20015;-84
2022/09/28 00:44:37;;;;;;;8.43;5.00;;;;;;;;;;6305728;22;20350;-84
2022/09/28 00:47:31;;;;;;;8.85;5.65;;;;;;;;;;6280141;22;20023;-85
2022/09/28 00:50:06;;;;;;;5.90;5.13;;;;;;;;;;6302991;22;20485;-85
2022/09/28 00:53:03;;;;;;;48.67;7.05;;;;;;;;;;6304426;22;20093;-84
2022/09/28 00:55:48;;;;;;;39.28;6.10;;;;;;;;;;6329444;22;20038;-85
2022/09/28 00:58:28;;;;;;;106.78;8.02;;;;;;;;;;6301390;22;20872;-85
2022/09/28 01:00:55;;;;;;;348.17;12.43;;;;;;;;;;6301899;22;20454;-84
2022/09/28 01:03:22;;;;;;;142.98;7.07;;;;;;;;;;6301575;22;20061;-85
2022/09/28 01:05:53;;;;;;;80.43;8.65;;;;;;;;;;6300757;22;20080;-85
2022/09/28 01:08:43;;;;;;;57.45;8.18;;;;;;;;;;6329478;22;20477;-85
2022/09/28 01:11:19;;;;;;;10.52;6.85;;;;;;;;;;6204916;22;20030;-85
2022/09/28 01:17:13;;;;;;;73.75;8.10;;;;;;;;;;6205490;23;20059;-84
2022/09/28 01:23:11;;;;;;;118.68;9.50;;;;;;;;;;6231860;23;20019;-84
2022/09/28 01:25:45;;;;;;;161.68;9.38;;;;;;;;;;6207924;23;20020;-84
2022/09/28 02:09:46;;;;;;;52.90;10.40;;;6.30;99.90;;;;;;6308884;22;20061;-85
2022/09/28 02:55:34;;;;;;;186.10;10.05;;;;;;;;;;6328940;22;20029;-84
2022/09/28 02:58:12;;;;;;;171.73;9.48;;;;;;;;;;6313229;22;20018;-84
2022/09/28 03:30:53;;;;;;;120.60;7.90;;;;;;;;;;6316391;22;20027;-84
2022/09/28 03:53:13;;;;;;;215.20;11.13;;;;;;;;;;6232079;22;20773;31
2022/09/28 04:34:26;;;;;;;146.32;14.90;;;;;;;;;;6299283;22;20426;-85
2022/09/28 04:40:50;;;;;;;145.93;15.93;;;6.20;99.90;;;;;;6299845;22;20051;-85
2022/09/28 04:50:44;;;;;;;106.93;15.35;;;;;;;;;;6333632;22;20134;-85
2022/09/28 04:59:46;;;;;;;88.13;15.23;;;;;;;;;;6241209;22;20440;-85
2022/09/28 05:06:10;;;;;;;205.88;17.35;;;;;;;;;;6288884;22;20432;-85
2022/09/28 05:08:36;;;;;;;244.15;19.05;;;;;;;;;;6279755;22;20023;-84
2022/09/28 05:11:04;;;;;;;243.63;18.92;;;;;;;;;;6297259;22;20482;-84
2022/09/28 05:43:00;;;;;;;114.93;17.20;;;;;;;;;;6288345;22;20034;-84
2022/09/28 05:45:27;;;;;;;124.40;17.05;;;;;;;;;;6246568;22;20030;-85
2022/09/28 06:18:59;;;;;;;58.75;9.90;;;;;;;;;;6242092;22;20341;-85
2022/09/28 06:25:20;;;;;;;94.68;12.70;;;5.60;99.90;;;;;;6297133;22;20504;-85
2022/09/28 06:28:12;;;;;;;46.30;10.38;;;;;;;;;;6252576;22;20019;-84
2022/09/28 06:30:38;;;;;;;72.13;11.35;;;;;;;;;;6297153;22;20055;-84
2022/09/28 06:42:28;;;;;;;69.95;11.65;;;;;;;;;;6198126;23;20028;-85
2022/09/28 06:44:54;;;;;;;74.00;12.32;;;;;;;;;;6238994;23;20062;-84
2022/09/28 06:47:20;;;;;;;137.98;14.48;;;;;;;;;;6261731;22;20027;-84
2022/09/28 06:52:51;;;;;;;103.72;11.43;;;;;;;;;;6305964;22;20019;-84
2022/09/28 07:01:17;;;;;;;56.92;10.90;;;;;;;;;;6285310;22;20186;-85
2022/09/28 07:03:45;;;;;;;49.97;10.07;;;;;;;;;;6259878;22;20019;-85
2022/09/28 07:09:10;;;;;;;84.95;12.02;;;;;;;;;;6349608;22;20026;-83
2022/09/28 07:11:38;;;;;;;90.93;11.85;;;;;;;;;;6295141;22;20084;-83
2022/09/28 07:21:11;;;;;;;91.68;12.57;;;;;;;;;;6343179;22;20973;-85
2022/09/28 07:30:45;;;;;;;63.22;15.27;;;;;;;;;;6215508;23;20098;-85
2022/09/28 07:36:30;;;;;;;60.63;17.00;;;;;;;;;;6274978;22;20050;-85
2022/09/28 07:38:56;;;;;;;78.70;18.60;;;;;;;;;;6244269;22;20911;-85
2022/09/28 07:54:18;;;;;;;45.20;13.63;;;;;;;;;;6300175;22;20347;-84
2022/09/28 07:57:05;;;;;;;90.00;18.75;;;;;;;;;;6223404;22;20072;-84
2022/09/28 07:59:31;;;;;;;60.42;13.88;;;;;;;;;;6250995;22;20069;-84
2022/09/28 08:01:58;;;;;;;52.72;15.90;;;;;;;;;;6303254;22;20043;-84
2022/09/28 08:07:14;;;;;;;95.35;17.65;;;;;;;;;;6300697;22;20088;-84
2022/09/28 08:09:41;;;;;;;155.90;17.38;;;;;;;;;;6274681;22;20030;-86
2022/09/28 08:12:07;;;;;;;74.70;16.90;;;;;;;;;;6279140;22;20649;-85
2022/09/28 08:18:14;;;;;;;79.18;17.42;;;;;;;;;;6317594;22;20026;-85
2022/09/28 08:24:10;;;;;;;93.75;15.73;;;;;;;;;;6303970;22;20472;-84
2022/09/28 08:26:36;;;;;;;86.20;16.65;;;;;;;;;;6277212;22;20403;-86
2022/09/28 08:29:07;;;;;;;102.15;16.88;;;;;;;;;;6277127;22;20018;-85
2022/09/28 08:31:33;;;;;;;28.40;13.50;;;;;;;;;;6250069;22;20023;-85
2022/09/28 08:52:42;;;;;;;21.55;14.90;;;;;;;;;;6287802;22;20030;-85
2022/09/28 08:55:18;;;;;;;16.17;11.85;;;;;;;;;;6270423;22;20054;-85
2022/09/28 09:44:58;;;;;;;16.52;13.88;;;;;;;;;;6301491;22;20034;-85
2022/09/28 09:47:31;;;;;;;13.57;12.15;;;;;;;;;;6296296;22;20027;-83
2022/09/28 09:50:16;;;;;;;11.95;10.57;;;;;;;;;;6299930;22;20042;-86
2022/09/28 09:52:51;;;;;;;10.48;8.98;;;;;;;;;;6301956;22;20122;-82
2022/09/28 09:55:25;;;;;;;9.88;8.88;;;;;;;;;;6306249;22;20351;-84
2022/09/28 10:00:27;;;;;;;7.80;6.97;;;;;;;;;;6304148;22;20023;-83
2022/09/28 10:02:53;;;;;;;7.55;6.40;;;;;;;;;;6272324;22;20092;-84
2022/09/28 10:11:39;;;;;;;6.20;5.60;;;;;;;;;;6283765;22;20401;-83
2022/09/28 10:14:07;;;;;;;5.18;4.60;;;;;;;;;;6218296;22;20058;-85
2022/09/28 10:19:43;;;;;;;7.00;4.57;;;;;;;;;;6261036;22;20080;-86
2022/09/28 10:22:28;;;;;;;5.35;3.72;;;;;;;;;;6273592;22;20023;-87
2022/09/28 10:37:10;;;;;;;5.72;3.70;;;;;;;;;;6310730;22;20346;-85
2022/09/28 10:39:58;;;;;;;6.95;3.28;;;13.90;99.90;;;;;;6279573;22;20023;-85
2022/09/28 10:42:46;;;;;;;7.90;3.58;;;;;;;;;;6275749;22;20015;-83
2022/09/28 10:45:12;;;;;;;4.15;3.75;;;;;;;;;;6306087;22;20019;-84
2022/09/28 10:47:42;;;;;;;7.80;3.40;;;;;;;;;;6280472;22;20109;-85
2022/09/28 10:50:26;;;;;;;3.55;2.70;;;;;;;;;;6308574;22;20030;-86
2022/09/28 10:52:52;;;;;;;5.38;3.13;;;;;;;;;;6306203;22;20019;-86
2022/09/28 10:55:22;;;;;;;3.35;2.95;;;;;;;;;;6307207;22;20770;-84
2022/09/28 10:57:48;;;;;;;3.45;2.80;;;;;;;;;;6278610;22;20136;-86
2022/09/28 11:00:33;;;;;;;6.68;3.28;;;;;;;;;;6255854;22;20027;-82
2022/09/28 11:03:01;;;;;;;3.20;2.60;;;;;;;;;;6308333;22;20137;-86
2022/09/28 11:05:27;;;;;;;6.25;2.78;;;;;;;;;;6279216;22;20068;-85
2022/09/28 11:07:54;;;;;;;5.75;2.55;;;;;;;;;;6280260;22;20026;-87
2022/09/28 11:10:25;;;;;;;3.85;2.40;;;;;;;;;;6276858;22;20019;-87
2022/09/28 11:15:41;;;;;;;2.75;2.13;;;;;;;;;;6310983;22;20420;-87
2022/09/28 11:18:21;;;;;;;3.45;2.22;;;;;;;;;;6282960;22;20022;-86
2022/09/28 11:20:49;;;;;;;3.38;2.50;;;;;;;;;;6283959;22;20026;-87
2022/09/28 11:23:21;;;;;;;2.95;2.40;;;;;;;;;;6259425;22;20400;-87
2022/09/28 11:26:01;;;;;;;3.00;2.60;;;;;;;;;;6257301;22;20038;-86
2022/09/28 11:28:36;;;;;;;3.75;2.95;;;;;;;;;;6287166;22;20019;-86
2022/09/28 11:31:03;;;;;;;2.50;2.30;;;;;;;;;;6286011;22;20103;-85
2022/09/28 11:36:27;;;;;;;2.60;2.20;;;;;;;;;;6281622;22;20035;-85
2022/09/28 11:42:29;;;;;;;3.45;1.70;;;;;;;;;;6278093;22;20043;-84
2022/09/28 11:45:05;;;;;;;4.05;2.00;;;;;;;;;;6279420;22;20028;-86
2022/09/28 11:47:43;;;;;;;3.05;1.80;;;;;;;;;;6239001;22;20015;-85
2022/09/28 11:50:27;;;;;;;2.28;2.00;;;16.70;99.90;;;;;;6274212;22;20020;-86
2022/09/28 11:52:59;;;;;;;5.43;1.65;;;;;;;;;;6275162;22;20019;-85
2022/09/28 11:55:29;;;;;;;2.20;1.20;;;;;;;;;;6319741;22;20046;-85
2022/09/28 11:58:04;;;;;;;2.08;1.15;;;;;;;;;;6287680;22;20019;-86
2022/09/28 12:00:34;;;;;;;3.10;1.27;;;;;;;;;;6285825;22;20030;-85
2022/09/28 12:06:19;;;;;;;1.63;0.90;;;;;;;;;;6285966;22;20019;-84
2022/09/28 12:08:52;;;;;;;2.70;1.08;;;;;;;;;;6312568;22;20027;-86
2022/09/28 12:11:42;;;;;;;0.40;0.40;;;;;;;;;;6219939;23;20020;-84
2022/09/28 12:14:21;;;;;;;0.60;0.60;;;;;;;;;;6244318;23;20020;-83
2022/09/28 12:16:56;;;;;;;0.90;0.50;;;;;;;;;;6219796;23;20019;-85
2022/09/28 12:19:32;;;;;;;0.63;0.40;;;;;;;;;;6217212;23;20070;-83
2022/09/28 12:22:01;;;;;;;0.43;0.40;;;;;;;;;;6193477;23;20020;-84
2022/09/28 12:24:48;;;;;;;2.17;0.60;;;;;;;;;;6221477;23;20088;-86
2022/09/28 12:27:33;;;;;;;1.15;0.60;;;;;;;;;;6224010;23;20024;-83
2022/09/28 12:30:03;;;;;;;1.60;0.50;;;;;;;;;;6220721;23;20024;-85
2022/09/28 12:32:38;;;;;;;0.73;0.40;;;;;;;;;;6246990;23;20453;-84
2022/09/28 12:35:12;;;;;;;1.65;0.40;;;;;;;;;;6219308;23;20114;-84
2022/09/28 12:37:49;;;;;;;2.10;0.40;;;;;;;;;;6194675;23;20020;-83
2022/09/28 12:40:33;;;;;;;1.50;0.57;;;;;;;;;;6220125;23;20072;-85
2022/09/28 12:43:00;;;;;;;0.55;0.40;;;;;;;;;;6276041;22;20042;-83
2022/09/28 12:45:32;;;;;;;0.43;0.40;;;;;;;;;;6271452;22;20091;-84
2022/09/28 12:48:13;;;;;;;0.50;0.50;;;;;;;;;;6308785;22;20019;-84
2022/09/28 12:50:43;;;;;;;1.17;1.08;;;;;;;;;;6274237;22;20015;-84
2022/09/28 12:53:32;;;;;;;1.05;0.63;;;;;;;;;;6280639;22;20023;-84
2022/09/28 12:56:02;;;;;;;0.95;0.50;;;;;;;;;;6301318;22;20019;-84
2022/09/28 12:58:31;;;;;;;0.85;0.40;;;;;;;;;;6296925;22;20332;-84
2022/09/28 13:04:28;;;;;;;1.00;0.40;;;;;;;;;;6310334;22;20024;-86
2022/09/28 13:07:43;;;;;;;1.83;0.50;;;16.30;99.90;;;;;;6304549;22;20019;-84
2022/09/28 13:10:26;;;;;;;1.98;0.65;;;;;;;;;;6303048;22;20440;-85
2022/09/28 13:13:15;;;;;;;0.95;0.40;;;;;;;;;;6308353;22;20051;-85
2022/09/28 13:15:59;;;;;;;1.92;0.40;;;;;;;;;;6311392;22;20096;-85
2022/09/28 13:18:31;;;;;;;3.60;0.43;;;;;;;;;;6310599;22;20022;-85
2022/09/28 13:20:58;;;;;;;1.77;0.60;;;;;;;;;;6300716;22;20530;-84
2022/09/28 13:23:29;;;;;;;2.03;0.70;;;;;;;;;;6288562;22;20016;-84
2022/09/28 13:26:15;;;;;;;5.00;0.50;;;;;;;;;;6277690;22;20069;-84
2022/09/28 13:28:42;;;;;;;3.20;1.05;;;;;;;;;;6269096;22;20570;-85
2022/09/28 13:34:13;;;;;;;6.18;0.70;;;;;;;;;;6278727;22;20073;-85
2022/09/28 13:36:40;;;;;;;2.72;0.65;;;;;;;;;;6265764;22;20022;-86
2022/09/28 13:42:09;;;;;;;0.80;0.63;;;;;;;;;;6309229;22;20035;-85
2022/09/28 13:47:41;;;;;;;2.35;0.50;;;;;;;;;;6307730;22;20542;-85
2022/09/28 13:50:24;;;;;;;0.82;0.50;;;;;;;;;;6281968;22;20018;-84
2022/09/28 13:52:56;;;;;;;0.93;0.57;;;;;;;;;;6299906;22;20023;-86
2022/09/28 17:54:19;;;;;;;13.82;2.90;;;;;;;;;;6299466;22;20039;-85
2022/09/28 17:56:45;;;;;;;5.72;2.08;;;;;;;;;;6277353;22;20042;-87
2022/09/28 17:59:20;;;;;;;4.72;2.08;;;;;;;;;;6228984;22;20717;-86
2022/09/28 18:01:47;;;;;;;9.75;3.33;;;;;;;;;;6302152;22;20069;-85
2022/09/28 18:04:14;;;;;;;6.63;3.03;;;;;;;;;;6252315;22;20027;-86
2022/09/28 18:06:43;;;;;;;7.43;3.03;;;;;;;;;;6250712;22;20019;-86
2022/09/28 18:09:28;;;;;;;13.93;3.38;;;;;;;;;;6250985;22;20019;-88
2022/09/28 18:15:01;;;;;;;4.05;2.65;;;;;;;;;;6263201;22;20460;-87
2022/09/28 18:17:37;;;;;;;5.20;2.00;;;;;;;;;;6250918;22;20019;-85
2022/09/28 18:20:03;;;;;;;2.28;2.05;;;;;;;;;;6247757;22;20697;-85
2022/09/28 18:22:30;;;;;;;2.15;1.95;;;;;;;;;;6250360;22;20023;-85
2022/09/28 18:24:56;;;;;;;2.65;2.03;;;;;;;;;;6249586;22;20155;-86
2022/09/28 18:27:22;;;;;;;3.15;1.85;;;;;;;;;;6264068;22;20015;-85
2022/09/28 18:29:48;;;;;;;3.15;1.85;;;;;;;;;;6273305;22;20019;-84
2022/09/28 18:32:20;;;;;;;3.45;1.70;;;;;;;;;;6252461;22;20019;-86
2022/09/28 18:38:23;;;;;;;3.20;1.88;;;;;;;;;;6334569;22;20208;-85
2022/09/28 18:40:52;;;;;;;3.58;3.22;;;;;;;;;;6312480;22;20090;-85
2022/09/28 18:43:18;;;;;;;2.38;2.10;;;;;;;;;;6287623;22;20029;-88
2022/09/28 18:45:48;;;;;;;2.20;2.08;;;;;;;;;;6285269;22;20022;-87
2022/09/28 18:48:14;;;;;;;3.75;2.30;;;;;;;;;;6280189;22;20019;-86
2022/09/28 18:50:43;;;;;;;3.15;2.13;;;;;;;;;;6332604;22;20019;-85
2022/09/28 18:53:12;;;;;;;5.18;2.90;;;;;;;;;;6277612;22;20100;-86
2022/09/28 18:55:39;;;;;;;3.75;2.90;;;;;;;;;;6333017;22;20491;-86
2022/09/28 18:58:06;;;;;;;4.80;2.90;;;;;;;;;;6331834;22;20015;-85
2022/09/28 19:00:32;;;;;;;3.08;2.83;;;;;;;;;;6303805;22;20341;-84
2022/09/28 19:02:58;;;;;;;4.15;3.20;;;;;;;;;;6278396;22;20450;-85
2022/09/28 19:05:25;;;;;;;3.90;3.30;;;;;;;;;;6335623;22;20843;-84
2022/09/28 19:07:57;;;;;;;4.82;3.25;;;;;;;;;;6332423;22;20015;-83
2022/09/28 19:10:23;;;;;;;3.40;3.10;;;;;;;;;;6307858;22;20450;-83
2022/09/28 19:12:50;;;;;;;3.38;3.08;;;;;;;;;;6332059;22;20079;-83
2022/09/28 19:15:18;;;;;;;7.32;4.35;;;;;;;;;;6333620;22;20030;-84
2022/09/28 19:17:46;;;;;;;4.13;3.70;;;;;;;;;;6331666;22;20089;-84
2022/09/28 19:20:12;;;;;;;3.80;3.50;;;;;;;;;;6304455;22;20026;-83
2022/09/28 19:22:38;;;;;;;6.05;3.17;;;;;;;;;;6331316;22;20019;-83
2022/09/28 19:25:07;;;;;;;8.20;4.50;;;;;;;;;;6279879;22;20021;-83
2022/09/28 19:27:33;;;;;;;5.18;4.68;;;;;;;;;;6334025;22;20577;-85
2022/09/28 19:29:59;;;;;;;7.07;6.13;;;;;;;;;;6333532;22;20075;-83
2022/09/28 19:33:00;;;;;;;9.43;4.90;;;;;;;;;;6333526;22;20010;-83
2022/09/28 19:35:26;;;;;;;3.50;3.20;;;;;;;;;;6277705;22;20033;-83
2022/09/28 19:37:53;;;;;;;6.57;4.07;;;;;;;;;;6330031;22;20122;-84
2022/09/28 19:40:19;;;;;;;5.10;3.60;;;;;;;;;;6300543;22;20061;-85
2022/09/28 19:42:45;;;;;;;4.13;3.47;;;;;;;;;;6301723;22;20047;-83
2022/09/28 19:45:12;;;;;;;4.82;3.85;;;;;;;;;;6304350;22;20393;-84
2022/09/28 19:47:38;;;;;;;6.25;4.80;;;;;;;;;;6302625;22;20041;-83
2022/09/28 19:50:05;;;;;;;7.13;5.68;;;;;;;;;;6305715;22;20015;-83
2022/09/28 19:52:32;;;;;;;7.47;6.20;;;;;;;;;;6304962;22;20026;-84
2022/09/28 19:55:04;;;;;;;7.07;5.55;;;;;;;;;;6306758;22;20026;-84
2022/09/28 19:57:31;;;;;;;9.65;5.57;;;;;;;;;;6305162;22;20015;-84
2022/09/28 20:00:07;;;;;;;8.35;6.00;;;;;;;;;;6308306;22;20022;-84
2022/09/28 20:02:34;;;;;;;7.20;5.80;;;;;;;;;;6332355;22;20022;-85
2022/09/28 20:05:00;;;;;;;7.25;5.32;;;;;;;;;;6333136;22;20413;-84
2022/09/28 20:07:34;;;;;;;6.00;5.50;;;;;;;;;;6303867;22;20054;-84
2022/09/28 20:10:01;;;;;;;5.50;5.00;;;;;;;;;;6308544;22;20732;-84
2022/09/28 20:12:27;;;;;;;6.82;4.93;;;;;;;;;;6305832;22;20420;-84
2022/09/28 20:14:53;;;;;;;6.57;5.38;;;;;;;;;;6285036;22;20034;-84
2022/09/28 20:17:20;;;;;;;6.10;5.15;;;;;;;;;;6336542;22;20546;-83
2022/09/28 20:19:46;;;;;;;6.07;4.95;;;;;;;;;;6337449;22;20014;-86
2022/09/28 20:22:24;;;;;;;7.22;4.45;;;;;;;;;;6281277;22;20019;-83
2022/09/28 20:24:51;;;;;;;5.43;4.45;;;;;;;;;;6276604;22;20025;-85
2022/09/28 20:27:18;;;;;;;5.82;3.00;;;;;;;;;;6257398;22;20037;-84
2022/09/28 20:29:45;;;;;;;5.85;3.72;;;;;;;;;;6309771;22;20019;-84
2022/09/28 20:32:11;;;;;;;3.15;2.95;;;;;;;;;;6310140;22;20023;-82
2022/09/28 20:34:37;;;;;;;4.70;3.38;;;;;;;;;;6308341;22;20101;-85
2022/09/28 20:37:03;;;;;;;4.57;3.90;;;;;;;;;;6336614;22;20022;-84
2022/09/28 20:39:29;;;;;;;4.75;4.35;;;;;;;;;;6308579;22;20029;-86
2022/09/28 20:41:56;;;;;;;5.07;4.57;;;;;;;;;;6336402;22;20015;-83
2022/09/28 20:44:22;;;;;;;4.18;3.88;;;;;;;;;;6306637;22;20015;-85
2022/09/28 20:46:51;;;;;;;6.15;4.57;;;;;;;;;;6308666;22;20023;-85
2022/09/28 20:49:17;;;;;;;5.53;4.75;;;;;;;;;;6335087;22;20042;-84
2022/09/28 20:51:44;;;;;;;6.00;4.70;;;;;;;;;;6335721;22;20021;-85
2022/09/28 20:54:10;;;;;;;6.53;5.18;;;;;;;;;;6336116;22;20389;-85
2022/09/28 20:56:38;;;;;;;7.78;4.57;;;;;;;;;;6338459;22;20011;-84
2022/09/28 20:59:09;;;;;;;5.38;4.75;;;;;;;;;;6312790;22;20015;-84
2022/09/28 21:01:36;;;;;;;8.07;4.75;;;;;;;;;;6338218;22;20029;-84
2022/09/28 21:04:03;;;;;;;7.22;5.22;;;;;;;;;;6346552;22;20050;-83
2022/09/28 21:06:32;;;;;;;5.55;5.00;;;;;;;;;;6320748;22;20011;-85
2022/09/28 21:08:58;;;;;;;6.40;4.95;;;;;;;;;;6351638;22;20015;-83
2022/09/28 21:11:25;;;;;;;6.43;5.00;;;;;;;;;;6315326;22;20046;-85
2022/09/28 21:13:53;;;;;;;5.95;4.63;;;;;;;;;;6342555;22;20023;-86
2022/09/28 21:16:19;;;;;;;7.07;4.57;;;;;;;;;;6260985;22;20034;-86
2022/09/28 21:18:46;;;;;;;7.55;5.22;;;;;;;;;;6340225;22;20092;-85
2022/09/28 21:21:13;;;;;;;6.05;5.45;;;;;;;;;;6338125;22;20018;-85
2022/09/28 21:23:39;;;;;;;9.45;6.68;;;;;;;;;;6307999;22;20529;-87
2022/09/28 21:26:06;;;;;;;8.88;5.70;;;;;;;;;;6334318;22;20569;-85
2022/09/28 21:28:32;;;;;;;8.32;6.55;;;;;;;;;;6332501;22;20017;-85
2022/09/28 21:30:58;;;;;;;7.00;6.30;;;;;;;;;;6303938;22;20062;-84
2022/09/28 21:33:24;;;;;;;8.57;6.55;;;;;;;;;;6306936;22;20011;-83
2022/09/28 21:35:50;;;;;;;7.55;6.85;;;;;;;;;;6331656;22;20049;-83
2022/09/28 21:38:16;;;;;;;7.95;7.15;;;;;;;;;;6333433;22;20018;-86
2022/09/28 21:40:42;;;;;;;8.07;7.28;;;;;;;;;;6331008;22;20539;-85
2022/09/28 21:43:08;;;;;;;8.05;7.15;;;;;;;;;;6303029;22;20347;-85
2022/09/28 21:45:35;;;;;;;8.32;7.53;;;;;;;;;;6303209;22;20095;-85
2022/09/28 21:48:01;;;;;;;8.52;7.00;;;;;;;;;;6306390;22;20038;-86
2022/09/28 21:50:27;;;;;;;8.00;7.30;;;;;;;;;;6307266;22;20029;-85
2022/09/28 21:53:02;;;;;;;7.25;6.55;;;;;;;;;;6307472;22;20018;-85
2022/09/28 21:55:28;;;;;;;8.05;6.75;;;;;;;;;;6307415;22;20121;-84
2022/09/28 21:57:54;;;;;;;9.55;6.85;;;;;;;;;;6333120;22;20022;-85
2022/09/28 22:00:24;;;;;;;8.25;6.65;;;;;;;;;;6334925;22;20017;-85
2022/09/28 22:02:50;;;;;;;7.20;6.22;;;;;;;;;;6333300;22;20458;-87
2022/09/28 22:05:16;;;;;;;9.60;6.28;;;;;;;;;;6306127;22;20450;-84
2022/09/28 22:07:42;;;;;;;6.93;6.18;;;;;;;;;;6332144;22;20053;-83
2022/09/28 22:10:11;;;;;;;6.75;6.03;;;;;;;;;;6302217;22;20390;-84
2022/09/28 22:12:37;;;;;;;8.23;7.07;;;;;;;;;;6329119;22;20027;-82
2022/09/28 22:15:04;;;;;;;7.18;6.47;;;;;;;;;;6329138;22;20015;-83
2022/09/28 22:17:30;;;;;;;6.97;6.28;;;;;;;;;;6305029;22;20457;-83
2022/09/28 22:19:56;;;;;;;6.70;5.60;;;;;;;;;;6303919;22;20054;-84
2022/09/28 22:22:23;;;;;;;6.70;6.07;;;;;;;;;;6333582;22;20029;-82
2022/09/28 22:24:49;;;;;;;6.22;5.47;;;;;;;;;;6300956;22;20022;-82
2022/09/28 22:27:15;;;;;;;6.35;5.75;;;;;;;;;;6331525;22;20501;-83
2022/09/28 22:29:41;;;;;;;7.18;6.45;;;;;;;;;;6301426;22;20026;-83
2022/09/28 22:32:07;;;;;;;8.52;6.55;;;;;;;;;;6331688;22;20364;-83
2022/09/28 22:34:33;;;;;;;8.02;6.80;;;;;;;;;;6331838;22;20120;-82
2022/09/28 22:37:01;;;;;;;8.52;7.22;;;;;;;;;;6330927;22;20015;-84
2022/09/28 22:39:28;;;;;;;7.88;6.95;;;;;;;;;;6332233;22;20014;-85
2022/09/28 22:41:54;;;;;;;7.30;6.60;;;;;;;;;;6278321;22;20058;-81
2022/09/28 22:44:20;;;;;;;9.70;6.75;;;;;;;;;;6307000;22;20015;-81
2022/09/28 22:46:46;;;;;;;6.72;5.53;;;;;;;;;;6333515;22;20025;-83
2022/09/28 22:49:13;;;;;;;6.15;5.38;;;;;;;;;;6333757;22;20074;-82
2022/09/28 22:51:39;;;;;;;6.13;4.22;;;;;;;;;;6333817;22;20023;-83
2022/09/28 22:54:06;;;;;;;4.40;4.00;;;;;;;;;;6334228;22;20019;-85
2022/09/28 22:56:32;;;;;;;4.22;3.58;;;;;;;;;;6308389;22;20019;-86
2022/09/28 22:58:58;;;;;;;5.72;4.45;;;;;;;;;;6333944;22;20026;-88
2022/09/28 23:01:28;;;;;;;16.65;15.10;;;;;;;;;;6334203;22;20014;-83
2022/09/28 23:03:55;;;;;;;7.88;7.07;;;;;;;;;;6304315;22;20478;-87
2022/09/28 23:06:22;;;;;;;4.90;4.40;;;;;;;;;;6308177;22;20124;-86
2022/09/28 23:09:01;;;;;;;4.85;4.20;;;;;;;;;;6332330;22;20573;-84
2022/09/28 23:11:28;;;;;;;4.35;3.95;;;;;;;;;;6333442;22;20176;-84
2022/09/28 23:13:55;;;;;;;5.50;4.53;;;;;;;;;;6334051;22;20394;-87
2022/09/28 23:16:24;;;;;;;13.27;5.45;;;;;;;;;;6333444;22;20019;-86
2022/09/28 23:18:51;;;;;;;6.75;5.47;;;;;;;;;;6305334;22;20087;-85
2022/09/28 23:21:18;;;;;;;8.88;6.30;;;;;;;;;;6306445;22;20023;-85
2022/09/28 23:23:45;;;;;;;6.88;6.28;;;;;;;;;;6334030;22;20025;-86
2022/09/28 23:26:15;;;;;;;11.90;6.50;;;;;;;;;;6336705;22;20019;-85
2022/09/28 23:28:41;;;;;;;7.50;6.10;;;;;;;;;;6344707;22;20058;-85
2022/09/28 23:31:21;;;;;;;14.93;7.53;;;;;;;;;;6348428;22;20027;-84
2022/09/28 23:33:48;;;;;;;10.48;5.60;;;;;;;;;;6343649;22;20019;-86
2022/09/28 23:36:14;;;;;;;5.60;5.10;;;;;;;;;;6307508;22;20124;-85
2022/09/28 23:38:40;;;;;;;5.07;4.68;;;;;;;;;;6304436;22;20046;-86
2022/09/28 23:41:06;;;;;;;4.80;4.40;;;;;;;;;;6303752;22;20023;-85
2022/09/28 23:43:33;;;;;;;5.72;5.22;;;;;;;;;;6303299;22;20021;-86
2022/09/28 23:45:59;;;;;;;6.35;5.22;;;;;;;;;;6334850;22;20110;-85
2022/09/28 23:48:25;;;;;;;14.18;4.68;;;;;;;;;;6304458;22;20106;-85
2022/09/28 23:50:51;;;;;;;6.43;4.65;;;;;;;;;;6331885;22;20106;-86
2022/09/28 23:53:17;;;;;;;12.68;4.45;;;;;;;;;;6304959;22;20177;-86
2022/09/28 23:55:43;;;;;;;4.93;4.53;;;;;;;;;;6303151;22;20071;-84
2022/09/28 23:58:10;;;;;;;5.70;5.20;;;;;;;;;;6304729;22;20486;-84
